sensor_id;sensor_type;location;lat;lon;timestamp;temperature;humidity
30304;DHT22;17112;48.636;10.152;2024-02-16T00:00:17;8.20;69.70
30304;DHT22;17112;48.636;10.152;2024-02-16T00:02:43;8.20;69.70
30304;DHT22;17112;48.636;10.152;2024-02-16T00:05:10;8.20;69.80
30304;DHT22;17112;48.636;10.152;2024-02-16T00:07:39;8.20;69.90
30304;DHT22;17112;48.636;10.152;2024-02-16T00:10:06;8.20;69.90
30304;DHT22;17112;48.636;10.152;2024-02-16T00:12:32;8.20;69.80
30304;DHT22;17112;48.636;10.152;2024-02-16T00:14:59;8.20;69.90
30304;DHT22;17112;48.636;10.152;2024-02-16T00:17:25;8.20;70.00
30304;DHT22;17112;48.636;10.152;2024-02-16T00:19:53;8.20;69.90
30304;DHT22;17112;48.636;10.152;2024-02-16T00:22:19;8.20;70.00
30304;DHT22;17112;48.636;10.152;2024-02-16T00:24:44;8.30;70.20
30304;DHT22;17112;48.636;10.152;2024-02-16T00:27:10;8.20;70.10
30304;DHT22;17112;48.636;10.152;2024-02-16T00:29:36;8.30;70.20
30304;DHT22;17112;48.636;10.152;2024-02-16T00:32:04;8.30;70.20
30304;DHT22;17112;48.636;10.152;2024-02-16T00:34:32;8.30;70.20
30304;DHT22;17112;48.636;10.152;2024-02-16T00:36:58;8.30;70.10
30304;DHT22;17112;48.636;10.152;2024-02-16T00:39:23;8.30;70.10
30304;DHT22;17112;48.636;10.152;2024-02-16T00:41:50;8.30;70.10
30304;DHT22;17112;48.636;10.152;2024-02-16T00:44:16;8.30;70.30
30304;DHT22;17112;48.636;10.152;2024-02-16T00:46:46;8.30;70.40
30304;DHT22;17112;48.636;10.152;2024-02-16T00:49:13;8.30;70.40
30304;DHT22;17112;48.636;10.152;2024-02-16T00:51:39;8.30;70.40
30304;DHT22;17112;48.636;10.152;2024-02-16T00:54:05;8.40;70.50
30304;DHT22;17112;48.636;10.152;2024-02-16T00:56:34;8.40;70.50
30304;DHT22;17112;48.636;10.152;2024-02-16T00:59:00;8.40;70.60
30304;DHT22;17112;48.636;10.152;2024-02-16T01:01:26;8.40;70.50
30304;DHT22;17112;48.636;10.152;2024-02-16T01:03:54;8.40;71.30
30304;DHT22;17112;48.636;10.152;2024-02-16T01:06:20;8.50;70.70
30304;DHT22;17112;48.636;10.152;2024-02-16T01:08:46;8.50;70.60
30304;DHT22;17112;48.636;10.152;2024-02-16T01:11:12;8.50;70.60
30304;DHT22;17112;48.636;10.152;2024-02-16T01:13:39;8.50;70.60
30304;DHT22;17112;48.636;10.152;2024-02-16T01:16:05;8.50;70.70
30304;DHT22;17112;48.636;10.152;2024-02-16T01:18:31;8.50;70.70
30304;DHT22;17112;48.636;10.152;2024-02-16T01:20:58;8.50;70.70
30304;DHT22;17112;48.636;10.152;2024-02-16T01:23:24;8.50;70.70
30304;DHT22;17112;48.636;10.152;2024-02-16T01:25:50;8.50;70.70
30304;DHT22;17112;48.636;10.152;2024-02-16T01:28:16;8.50;70.80
30304;DHT22;17112;48.636;10.152;2024-02-16T01:30:41;8.50;70.70
30304;DHT22;17112;48.636;10.152;2024-02-16T01:33:07;8.50;70.80
30304;DHT22;17112;48.636;10.152;2024-02-16T01:35:34;8.50;71.60
30304;DHT22;17112;48.636;10.152;2024-02-16T01:37:59;8.60;70.90
30304;DHT22;17112;48.636;10.152;2024-02-16T01:40:27;8.50;70.90
30304;DHT22;17112;48.636;10.152;2024-02-16T01:42:53;8.60;71.00
30304;DHT22;17112;48.636;10.152;2024-02-16T01:45:19;8.60;71.10
30304;DHT22;17112;48.636;10.152;2024-02-16T01:47:47;8.60;71.20
30304;DHT22;17112;48.636;10.152;2024-02-16T01:50:15;8.60;71.10
30304;DHT22;17112;48.636;10.152;2024-02-16T01:52:42;8.60;71.20
30304;DHT22;17112;48.636;10.152;2024-02-16T01:55:08;8.60;71.10
30304;DHT22;17112;48.636;10.152;2024-02-16T01:57:36;8.60;71.00
30304;DHT22;17112;48.636;10.152;2024-02-16T02:00:02;8.60;71.10
30304;DHT22;17112;48.636;10.152;2024-02-16T02:02:28;8.60;71.10
30304;DHT22;17112;48.636;10.152;2024-02-16T02:04:54;8.60;71.10
30304;DHT22;17112;48.636;10.152;2024-02-16T02:07:25;8.60;71.10
30304;DHT22;17112;48.636;10.152;2024-02-16T02:09:52;8.60;71.30
30304;DHT22;17112;48.636;10.152;2024-02-16T02:12:18;8.60;71.10
30304;DHT22;17112;48.636;10.152;2024-02-16T02:14:44;8.60;71.10
30304;DHT22;17112;48.636;10.152;2024-02-16T02:17:10;8.60;71.10
30304;DHT22;17112;48.636;10.152;2024-02-16T02:19:35;8.70;71.20
30304;DHT22;17112;48.636;10.152;2024-02-16T02:22:01;8.70;71.10
30304;DHT22;17112;48.636;10.152;2024-02-16T02:24:27;8.70;71.10
30304;DHT22;17112;48.636;10.152;2024-02-16T02:26:53;8.70;71.10
30304;DHT22;17112;48.636;10.152;2024-02-16T02:29:18;8.70;71.10
30304;DHT22;17112;48.636;10.152;2024-02-16T02:31:45;8.70;71.10
30304;DHT22;17112;48.636;10.152;2024-02-16T02:34:11;8.70;71.10
30304;DHT22;17112;48.636;10.152;2024-02-16T02:36:37;8.70;71.20
30304;DHT22;17112;48.636;10.152;2024-02-16T02:39:03;8.70;71.30
30304;DHT22;17112;48.636;10.152;2024-02-16T02:41:28;8.70;71.40
30304;DHT22;17112;48.636;10.152;2024-02-16T02:43:54;8.70;71.40
30304;DHT22;17112;48.636;10.152;2024-02-16T02:46:22;8.70;71.40
30304;DHT22;17112;48.636;10.152;2024-02-16T02:48:50;8.70;71.50
30304;DHT22;17112;48.636;10.152;2024-02-16T02:51:16;8.70;71.30
30304;DHT22;17112;48.636;10.152;2024-02-16T02:53:42;8.70;71.30
30304;DHT22;17112;48.636;10.152;2024-02-16T02:56:09;8.70;71.30
30304;DHT22;17112;48.636;10.152;2024-02-16T02:58:34;8.70;71.30
30304;DHT22;17112;48.636;10.152;2024-02-16T03:01:00;8.70;71.30
30304;DHT22;17112;48.636;10.152;2024-02-16T03:03:26;8.70;72.00
30304;DHT22;17112;48.636;10.152;2024-02-16T03:05:51;8.80;71.40
30304;DHT22;17112;48.636;10.152;2024-02-16T03:08:17;8.70;71.40
30304;DHT22;17112;48.636;10.152;2024-02-16T03:10:43;8.70;71.30
30304;DHT22;17112;48.636;10.152;2024-02-16T03:13:09;8.70;71.30
30304;DHT22;17112;48.636;10.152;2024-02-16T03:15:38;8.70;71.20
30304;DHT22;17112;48.636;10.152;2024-02-16T03:18:05;8.70;71.20
30304;DHT22;17112;48.636;10.152;2024-02-16T03:20:34;8.70;71.10
30304;DHT22;17112;48.636;10.152;2024-02-16T03:23:00;8.70;71.10
30304;DHT22;17112;48.636;10.152;2024-02-16T03:25:25;8.70;71.10
30304;DHT22;17112;48.636;10.152;2024-02-16T03:27:51;8.70;71.10
30304;DHT22;17112;48.636;10.152;2024-02-16T03:30:20;8.60;71.00
30304;DHT22;17112;48.636;10.152;2024-02-16T03:32:49;8.60;71.00
30304;DHT22;17112;48.636;10.152;2024-02-16T03:35:16;8.60;71.00
30304;DHT22;17112;48.636;10.152;2024-02-16T03:37:42;8.60;70.90
30304;DHT22;17112;48.636;10.152;2024-02-16T03:40:08;8.60;70.90
30304;DHT22;17112;48.636;10.152;2024-02-16T03:42:35;8.60;70.90
30304;DHT22;17112;48.636;10.152;2024-02-16T03:45:02;8.50;70.90
30304;DHT22;17112;48.636;10.152;2024-02-16T03:47:29;8.50;70.90
30304;DHT22;17112;48.636;10.152;2024-02-16T03:49:55;8.50;71.20
30304;DHT22;17112;48.636;10.152;2024-02-16T03:52:20;8.50;71.20
30304;DHT22;17112;48.636;10.152;2024-02-16T03:54:46;8.50;71.10
30304;DHT22;17112;48.636;10.152;2024-02-16T03:57:14;8.40;71.00
30304;DHT22;17112;48.636;10.152;2024-02-16T03:59:45;8.40;70.90
30304;DHT22;17112;48.636;10.152;2024-02-16T04:02:11;8.40;70.90
30304;DHT22;17112;48.636;10.152;2024-02-16T04:04:39;8.40;71.00
30304;DHT22;17112;48.636;10.152;2024-02-16T04:07:05;8.30;71.00
30304;DHT22;17112;48.636;10.152;2024-02-16T04:09:32;8.30;71.00
30304;DHT22;17112;48.636;10.152;2024-02-16T04:11:58;8.30;71.10
30304;DHT22;17112;48.636;10.152;2024-02-16T04:14:24;8.30;71.20
30304;DHT22;17112;48.636;10.152;2024-02-16T04:16:50;8.30;71.20
30304;DHT22;17112;48.636;10.152;2024-02-16T04:19:15;8.30;71.20
30304;DHT22;17112;48.636;10.152;2024-02-16T04:21:41;8.20;71.20
30304;DHT22;17112;48.636;10.152;2024-02-16T04:24:07;8.20;71.20
30304;DHT22;17112;48.636;10.152;2024-02-16T04:26:33;8.20;71.40
30304;DHT22;17112;48.636;10.152;2024-02-16T04:28:59;8.20;71.40
30304;DHT22;17112;48.636;10.152;2024-02-16T04:31:24;8.20;71.60
30304;DHT22;17112;48.636;10.152;2024-02-16T04:33:50;8.20;71.80
30304;DHT22;17112;48.636;10.152;2024-02-16T04:36:16;8.20;71.80
30304;DHT22;17112;48.636;10.152;2024-02-16T04:38:41;8.20;71.70
30304;DHT22;17112;48.636;10.152;2024-02-16T04:41:08;8.20;71.80
30304;DHT22;17112;48.636;10.152;2024-02-16T04:43:34;8.20;71.90
30304;DHT22;17112;48.636;10.152;2024-02-16T04:46:00;8.20;71.80
30304;DHT22;17112;48.636;10.152;2024-02-16T04:48:26;8.20;71.90
30304;DHT22;17112;48.636;10.152;2024-02-16T04:50:52;8.20;71.90
30304;DHT22;17112;48.636;10.152;2024-02-16T04:53:18;8.20;72.10
30304;DHT22;17112;48.636;10.152;2024-02-16T04:55:44;8.20;72.10
30304;DHT22;17112;48.636;10.152;2024-02-16T04:58:09;8.20;72.20
30304;DHT22;17112;48.636;10.152;2024-02-16T05:00:38;8.20;72.10
30304;DHT22;17112;48.636;10.152;2024-02-16T05:03:04;8.20;72.20
30304;DHT22;17112;48.636;10.152;2024-02-16T05:05:30;8.20;72.10
30304;DHT22;17112;48.636;10.152;2024-02-16T05:07:59;8.20;72.10
30304;DHT22;17112;48.636;10.152;2024-02-16T05:10:25;8.20;72.10
30304;DHT22;17112;48.636;10.152;2024-02-16T05:12:51;8.30;72.10
30304;DHT22;17112;48.636;10.152;2024-02-16T05:15:16;8.20;72.10
30304;DHT22;17112;48.636;10.152;2024-02-16T05:17:42;8.20;72.10
30304;DHT22;17112;48.636;10.152;2024-02-16T05:20:12;8.20;72.10
30304;DHT22;17112;48.636;10.152;2024-02-16T05:22:44;8.20;72.20
30304;DHT22;17112;48.636;10.152;2024-02-16T05:25:12;8.20;72.10
30304;DHT22;17112;48.636;10.152;2024-02-16T05:27:37;8.20;72.10
30304;DHT22;17112;48.636;10.152;2024-02-16T05:30:04;8.20;72.10
30304;DHT22;17112;48.636;10.152;2024-02-16T05:32:34;8.20;72.10
30304;DHT22;17112;48.636;10.152;2024-02-16T05:35:00;8.20;72.20
30304;DHT22;17112;48.636;10.152;2024-02-16T05:37:30;8.20;72.20
30304;DHT22;17112;48.636;10.152;2024-02-16T05:39:58;8.20;72.90
30304;DHT22;17112;48.636;10.152;2024-02-16T05:42:34;8.20;72.20
30304;DHT22;17112;48.636;10.152;2024-02-16T05:45:00;8.20;72.20
30304;DHT22;17112;48.636;10.152;2024-02-16T05:47:28;8.20;72.20
30304;DHT22;17112;48.636;10.152;2024-02-16T05:49:53;8.20;72.30
30304;DHT22;17112;48.636;10.152;2024-02-16T05:52:19;8.20;72.30
30304;DHT22;17112;48.636;10.152;2024-02-16T05:54:46;8.20;72.30
30304;DHT22;17112;48.636;10.152;2024-02-16T05:57:13;8.20;73.10
30304;DHT22;17112;48.636;10.152;2024-02-16T05:59:39;8.20;72.40
30304;DHT22;17112;48.636;10.152;2024-02-16T06:02:05;8.20;72.40
30304;DHT22;17112;48.636;10.152;2024-02-16T06:04:34;8.30;72.50
30304;DHT22;17112;48.636;10.152;2024-02-16T06:06:59;8.30;72.60
30304;DHT22;17112;48.636;10.152;2024-02-16T06:09:26;8.30;73.00
30304;DHT22;17112;48.636;10.152;2024-02-16T06:11:51;8.30;72.60
30304;DHT22;17112;48.636;10.152;2024-02-16T06:14:17;8.20;72.50
30304;DHT22;17112;48.636;10.152;2024-02-16T06:16:44;8.20;72.60
30304;DHT22;17112;48.636;10.152;2024-02-16T06:19:11;8.30;72.80
30304;DHT22;17112;48.636;10.152;2024-02-16T06:21:37;8.30;72.80
30304;DHT22;17112;48.636;10.152;2024-02-16T06:24:03;8.30;72.70
30304;DHT22;17112;48.636;10.152;2024-02-16T06:26:28;8.30;72.70
30304;DHT22;17112;48.636;10.152;2024-02-16T06:28:54;8.30;72.80
30304;DHT22;17112;48.636;10.152;2024-02-16T06:31:20;8.30;72.80
30304;DHT22;17112;48.636;10.152;2024-02-16T06:33:45;8.30;72.80
30304;DHT22;17112;48.636;10.152;2024-02-16T06:36:11;8.30;72.90
30304;DHT22;17112;48.636;10.152;2024-02-16T06:38:37;8.30;72.90
30304;DHT22;17112;48.636;10.152;2024-02-16T06:41:03;8.30;72.90
30304;DHT22;17112;48.636;10.152;2024-02-16T06:43:29;8.40;73.00
30304;DHT22;17112;48.636;10.152;2024-02-16T06:45:55;8.40;73.00
30304;DHT22;17112;48.636;10.152;2024-02-16T06:48:22;8.40;73.00
30304;DHT22;17112;48.636;10.152;2024-02-16T06:50:48;8.40;73.10
30304;DHT22;17112;48.636;10.152;2024-02-16T06:53:14;8.40;73.10
30304;DHT22;17112;48.636;10.152;2024-02-16T06:55:40;8.50;73.20
30304;DHT22;17112;48.636;10.152;2024-02-16T06:58:05;8.50;73.20
30304;DHT22;17112;48.636;10.152;2024-02-16T07:00:31;8.50;73.10
30304;DHT22;17112;48.636;10.152;2024-02-16T07:02:57;8.60;73.20
30304;DHT22;17112;48.636;10.152;2024-02-16T07:05:23;8.60;73.30
30304;DHT22;17112;48.636;10.152;2024-02-16T07:07:48;8.60;73.40
30304;DHT22;17112;48.636;10.152;2024-02-16T07:10:15;8.60;73.30
30304;DHT22;17112;48.636;10.152;2024-02-16T07:12:41;8.70;73.30
30304;DHT22;17112;48.636;10.152;2024-02-16T07:15:07;8.70;73.30
30304;DHT22;17112;48.636;10.152;2024-02-16T07:17:34;8.70;73.40
30304;DHT22;17112;48.636;10.152;2024-02-16T07:20:00;8.80;73.50
30304;DHT22;17112;48.636;10.152;2024-02-16T07:22:29;8.80;73.50
30304;DHT22;17112;48.636;10.152;2024-02-16T07:24:55;8.90;73.40
30304;DHT22;17112;48.636;10.152;2024-02-16T07:27:20;8.90;73.30
30304;DHT22;17112;48.636;10.152;2024-02-16T07:29:46;9.00;73.20
30304;DHT22;17112;48.636;10.152;2024-02-16T07:32:12;9.00;73.20
30304;DHT22;17112;48.636;10.152;2024-02-16T07:34:38;9.10;73.20
30304;DHT22;17112;48.636;10.152;2024-02-16T07:37:04;9.10;73.10
30304;DHT22;17112;48.636;10.152;2024-02-16T07:39:29;9.10;73.00
30304;DHT22;17112;48.636;10.152;2024-02-16T07:41:55;9.20;72.90
30304;DHT22;17112;48.636;10.152;2024-02-16T07:44:21;9.30;72.90
30304;DHT22;17112;48.636;10.152;2024-02-16T07:46:47;9.30;72.80
30304;DHT22;17112;48.636;10.152;2024-02-16T07:49:15;9.30;72.80
30304;DHT22;17112;48.636;10.152;2024-02-16T07:51:40;9.40;72.80
30304;DHT22;17112;48.636;10.152;2024-02-16T07:54:07;9.40;72.80
30304;DHT22;17112;48.636;10.152;2024-02-16T07:56:33;9.40;72.70
30304;DHT22;17112;48.636;10.152;2024-02-16T07:58:59;9.40;72.60
30304;DHT22;17112;48.636;10.152;2024-02-16T08:01:25;9.50;72.50
30304;DHT22;17112;48.636;10.152;2024-02-16T08:03:51;9.50;72.50
30304;DHT22;17112;48.636;10.152;2024-02-16T08:06:19;9.50;72.50
30304;DHT22;17112;48.636;10.152;2024-02-16T08:08:50;9.50;72.50
30304;DHT22;17112;48.636;10.152;2024-02-16T08:11:15;9.60;72.70
30304;DHT22;17112;48.636;10.152;2024-02-16T08:13:41;9.60;72.70
30304;DHT22;17112;48.636;10.152;2024-02-16T08:16:07;9.70;72.70
30304;DHT22;17112;48.636;10.152;2024-02-16T08:18:33;9.70;72.80
30304;DHT22;17112;48.636;10.152;2024-02-16T08:20:59;9.80;73.00
30304;DHT22;17112;48.636;10.152;2024-02-16T08:23:25;9.90;73.00
30304;DHT22;17112;48.636;10.152;2024-02-16T08:25:51;10.00;73.00
30304;DHT22;17112;48.636;10.152;2024-02-16T08:28:17;10.00;72.80
30304;DHT22;17112;48.636;10.152;2024-02-16T08:30:43;10.10;72.80
30304;DHT22;17112;48.636;10.152;2024-02-16T08:33:10;10.20;72.70
30304;DHT22;17112;48.636;10.152;2024-02-16T08:35:35;10.30;72.60
30304;DHT22;17112;48.636;10.152;2024-02-16T08:38:03;10.40;72.50
30304;DHT22;17112;48.636;10.152;2024-02-16T08:40:29;10.50;72.40
30304;DHT22;17112;48.636;10.152;2024-02-16T08:42:54;10.70;72.40
30304;DHT22;17112;48.636;10.152;2024-02-16T08:45:22;10.80;72.20
30304;DHT22;17112;48.636;10.152;2024-02-16T08:47:47;10.90;72.10
30304;DHT22;17112;48.636;10.152;2024-02-16T08:50:13;11.00;72.00
30304;DHT22;17112;48.636;10.152;2024-02-16T08:52:39;11.20;72.00
30304;DHT22;17112;48.636;10.152;2024-02-16T08:55:05;11.30;71.90
30304;DHT22;17112;48.636;10.152;2024-02-16T08:57:33;11.40;71.70
30304;DHT22;17112;48.636;10.152;2024-02-16T08:59:59;11.60;71.70
30304;DHT22;17112;48.636;10.152;2024-02-16T09:02:25;11.70;71.60
30304;DHT22;17112;48.636;10.152;2024-02-16T09:04:50;11.90;71.60
30304;DHT22;17112;48.636;10.152;2024-02-16T09:07:16;12.00;71.40
30304;DHT22;17112;48.636;10.152;2024-02-16T09:09:42;12.30;71.50
30304;DHT22;17112;48.636;10.152;2024-02-16T09:12:08;12.40;71.10
30304;DHT22;17112;48.636;10.152;2024-02-16T09:14:34;12.60;70.70
30304;DHT22;17112;48.636;10.152;2024-02-16T09:17:00;12.70;70.20
30304;DHT22;17112;48.636;10.152;2024-02-16T09:19:25;12.80;69.80
30304;DHT22;17112;48.636;10.152;2024-02-16T09:21:51;12.90;69.50
30304;DHT22;17112;48.636;10.152;2024-02-16T09:24:19;12.90;69.30
30304;DHT22;17112;48.636;10.152;2024-02-16T09:26:45;13.00;69.20
30304;DHT22;17112;48.636;10.152;2024-02-16T09:29:13;13.00;69.10
30304;DHT22;17112;48.636;10.152;2024-02-16T09:31:42;13.10;68.90
30304;DHT22;17112;48.636;10.152;2024-02-16T09:34:08;13.10;68.70
30304;DHT22;17112;48.636;10.152;2024-02-16T09:36:34;13.10;68.70
30304;DHT22;17112;48.636;10.152;2024-02-16T09:39:01;13.10;68.80
30304;DHT22;17112;48.636;10.152;2024-02-16T09:41:27;13.20;68.90
30304;DHT22;17112;48.636;10.152;2024-02-16T09:43:54;13.20;69.00
30304;DHT22;17112;48.636;10.152;2024-02-16T09:46:21;13.20;68.80
30304;DHT22;17112;48.636;10.152;2024-02-16T09:48:47;13.30;68.90
30304;DHT22;17112;48.636;10.152;2024-02-16T09:51:18;13.30;68.90
30304;DHT22;17112;48.636;10.152;2024-02-16T09:53:45;13.30;69.00
30304;DHT22;17112;48.636;10.152;2024-02-16T09:56:17;13.30;69.00
30304;DHT22;17112;48.636;10.152;2024-02-16T09:58:43;13.40;68.90
30304;DHT22;17112;48.636;10.152;2024-02-16T10:01:19;13.50;68.80
30304;DHT22;17112;48.636;10.152;2024-02-16T10:03:49;13.50;68.50
30304;DHT22;17112;48.636;10.152;2024-02-16T10:06:16;13.60;68.60
30304;DHT22;17112;48.636;10.152;2024-02-16T10:08:50;13.70;68.40
30304;DHT22;17112;48.636;10.152;2024-02-16T10:11:17;13.70;68.30
30304;DHT22;17112;48.636;10.152;2024-02-16T10:16:22;14.00;68.80
30304;DHT22;17112;48.636;10.152;2024-02-16T10:18:48;14.10;69.00
30304;DHT22;17112;48.636;10.152;2024-02-16T10:21:23;14.30;69.00
30304;DHT22;17112;48.636;10.152;2024-02-16T10:24:09;14.50;68.80
30304;DHT22;17112;48.636;10.152;2024-02-16T10:26:38;14.70;68.40
30304;DHT22;17112;48.636;10.152;2024-02-16T10:29:05;14.80;68.20
30304;DHT22;17112;48.636;10.152;2024-02-16T10:31:32;15.00;68.10
30304;DHT22;17112;48.636;10.152;2024-02-16T10:34:03;15.10;67.70
30304;DHT22;17112;48.636;10.152;2024-02-16T10:36:32;15.30;67.30
30304;DHT22;17112;48.636;10.152;2024-02-16T10:38:59;15.50;67.20
30304;DHT22;17112;48.636;10.152;2024-02-16T10:41:28;15.60;66.90
30304;DHT22;17112;48.636;10.152;2024-02-16T10:43:55;15.70;66.50
30304;DHT22;17112;48.636;10.152;2024-02-16T10:46:22;15.80;66.40
30304;DHT22;17112;48.636;10.152;2024-02-16T10:48:48;16.00;66.30
30304;DHT22;17112;48.636;10.152;2024-02-16T10:51:16;16.20;66.10
30304;DHT22;17112;48.636;10.152;2024-02-16T10:53:44;16.30;65.90
30304;DHT22;17112;48.636;10.152;2024-02-16T10:56:10;16.40;65.50
30304;DHT22;17112;48.636;10.152;2024-02-16T10:58:37;16.50;65.00
30304;DHT22;17112;48.636;10.152;2024-02-16T11:01:09;16.70;65.70
30304;DHT22;17112;48.636;10.152;2024-02-16T11:03:39;16.90;65.00
30304;DHT22;17112;48.636;10.152;2024-02-16T11:06:17;17.10;64.90
30304;DHT22;17112;48.636;10.152;2024-02-16T11:08:43;17.30;63.10
30304;DHT22;17112;48.636;10.152;2024-02-16T11:11:09;17.50;63.40
30304;DHT22;17112;48.636;10.152;2024-02-16T11:13:38;17.70;62.90
30304;DHT22;17112;48.636;10.152;2024-02-16T11:16:09;17.80;62.60
30304;DHT22;17112;48.636;10.152;2024-02-16T11:18:39;17.90;62.10
30304;DHT22;17112;48.636;10.152;2024-02-16T11:21:05;18.00;61.20
30304;DHT22;17112;48.636;10.152;2024-02-16T11:23:35;18.10;61.20
30304;DHT22;17112;48.636;10.152;2024-02-16T11:26:05;18.20;60.90
30304;DHT22;17112;48.636;10.152;2024-02-16T11:28:37;18.30;60.50
30304;DHT22;17112;48.636;10.152;2024-02-16T11:31:03;18.30;60.60
30304;DHT22;17112;48.636;10.152;2024-02-16T11:33:30;18.40;60.70
30304;DHT22;17112;48.636;10.152;2024-02-16T11:35:58;18.50;60.60
30304;DHT22;17112;48.636;10.152;2024-02-16T11:38:24;18.60;60.70
30304;DHT22;17112;48.636;10.152;2024-02-16T11:40:58;18.80;60.30
30304;DHT22;17112;48.636;10.152;2024-02-16T11:43:24;19.00;60.00
30304;DHT22;17112;48.636;10.152;2024-02-16T11:45:51;19.20;60.60
30304;DHT22;17112;48.636;10.152;2024-02-16T11:48:21;19.40;60.20
30304;DHT22;17112;48.636;10.152;2024-02-16T11:50:49;19.60;59.30
30304;DHT22;17112;48.636;10.152;2024-02-16T11:53:16;19.80;59.10
30304;DHT22;17112;48.636;10.152;2024-02-16T11:55:46;20.00;58.90
30304;DHT22;17112;48.636;10.152;2024-02-16T11:58:17;20.20;58.40
30304;DHT22;17112;48.636;10.152;2024-02-16T12:00:45;20.40;58.10
30304;DHT22;17112;48.636;10.152;2024-02-16T12:03:11;20.50;57.90
30304;DHT22;17112;48.636;10.152;2024-02-16T12:05:38;20.60;57.30
30304;DHT22;17112;48.636;10.152;2024-02-16T12:08:06;20.70;56.70
30304;DHT22;17112;48.636;10.152;2024-02-16T12:10:33;20.80;55.70
30304;DHT22;17112;48.636;10.152;2024-02-16T12:12:58;20.90;55.30
30304;DHT22;17112;48.636;10.152;2024-02-16T12:15:26;21.00;55.40
30304;DHT22;17112;48.636;10.152;2024-02-16T12:17:59;21.10;55.40
30304;DHT22;17112;48.636;10.152;2024-02-16T12:20:29;21.20;54.50
30304;DHT22;17112;48.636;10.152;2024-02-16T12:22:55;21.20;54.40
30304;DHT22;17112;48.636;10.152;2024-02-16T12:25:21;21.30;54.30
30304;DHT22;17112;48.636;10.152;2024-02-16T12:27:46;21.40;54.00
30304;DHT22;17112;48.636;10.152;2024-02-16T12:30:12;21.30;53.80
30304;DHT22;17112;48.636;10.152;2024-02-16T12:32:38;21.30;53.30
30304;DHT22;17112;48.636;10.152;2024-02-16T12:35:04;21.30;52.90
30304;DHT22;17112;48.636;10.152;2024-02-16T12:37:30;21.20;52.80
30304;DHT22;17112;48.636;10.152;2024-02-16T12:39:56;21.10;52.90
30304;DHT22;17112;48.636;10.152;2024-02-16T12:42:22;21.10;53.20
30304;DHT22;17112;48.636;10.152;2024-02-16T12:44:48;21.10;53.30
30304;DHT22;17112;48.636;10.152;2024-02-16T12:47:14;21.00;53.20
30304;DHT22;17112;48.636;10.152;2024-02-16T12:49:39;21.00;53.40
30304;DHT22;17112;48.636;10.152;2024-02-16T12:52:05;21.00;53.20
30304;DHT22;17112;48.636;10.152;2024-02-16T12:54:31;21.10;52.70
30304;DHT22;17112;48.636;10.152;2024-02-16T12:56:58;21.10;52.80
30304;DHT22;17112;48.636;10.152;2024-02-16T12:59:24;21.10;51.40
30304;DHT22;17112;48.636;10.152;2024-02-16T13:01:50;21.20;50.90
30304;DHT22;17112;48.636;10.152;2024-02-16T13:04:15;21.20;50.70
30304;DHT22;17112;48.636;10.152;2024-02-16T13:06:46;21.10;48.40
30304;DHT22;17112;48.636;10.152;2024-02-16T13:09:12;21.10;48.80
30304;DHT22;17112;48.636;10.152;2024-02-16T13:11:39;21.00;49.10
30304;DHT22;17112;48.636;10.152;2024-02-16T13:14:05;20.90;49.10
30304;DHT22;17112;48.636;10.152;2024-02-16T13:16:32;20.90;49.20
30304;DHT22;17112;48.636;10.152;2024-02-16T13:18:57;20.80;48.90
30304;DHT22;17112;48.636;10.152;2024-02-16T13:21:23;20.70;48.50
30304;DHT22;17112;48.636;10.152;2024-02-16T13:23:49;20.60;48.40
30304;DHT22;17112;48.636;10.152;2024-02-16T13:26:14;20.50;48.80
30304;DHT22;17112;48.636;10.152;2024-02-16T13:28:40;20.40;49.30
30304;DHT22;17112;48.636;10.152;2024-02-16T13:31:06;20.40;49.30
30304;DHT22;17112;48.636;10.152;2024-02-16T13:33:31;20.40;49.20
30304;DHT22;17112;48.636;10.152;2024-02-16T13:35:57;20.30;49.20
30304;DHT22;17112;48.636;10.152;2024-02-16T13:38:24;20.20;49.50
30304;DHT22;17112;48.636;10.152;2024-02-16T13:40:49;20.20;49.20
30304;DHT22;17112;48.636;10.152;2024-02-16T13:43:15;20.10;49.20
30304;DHT22;17112;48.636;10.152;2024-02-16T13:45:49;20.00;49.20
30304;DHT22;17112;48.636;10.152;2024-02-16T13:48:15;20.00;49.10
30304;DHT22;17112;48.636;10.152;2024-02-16T13:50:46;19.90;50.00
30304;DHT22;17112;48.636;10.152;2024-02-16T13:53:13;19.90;50.10
30304;DHT22;17112;48.636;10.152;2024-02-16T13:55:40;19.80;50.10
30304;DHT22;17112;48.636;10.152;2024-02-16T13:58:06;19.80;50.20
30304;DHT22;17112;48.636;10.152;2024-02-16T14:00:32;19.80;50.50
30304;DHT22;17112;48.636;10.152;2024-02-16T14:02:57;19.80;50.70
30304;DHT22;17112;48.636;10.152;2024-02-16T14:05:23;19.70;50.90
30304;DHT22;17112;48.636;10.152;2024-02-16T14:07:51;19.70;51.00
30304;DHT22;17112;48.636;10.152;2024-02-16T14:10:17;19.70;50.90
30304;DHT22;17112;48.636;10.152;2024-02-16T14:12:45;19.70;50.60
30304;DHT22;17112;48.636;10.152;2024-02-16T14:15:12;19.70;50.60
30304;DHT22;17112;48.636;10.152;2024-02-16T14:17:42;19.60;50.90
30304;DHT22;17112;48.636;10.152;2024-02-16T14:20:08;19.50;50.90
30304;DHT22;17112;48.636;10.152;2024-02-16T14:22:34;19.50;51.10
30304;DHT22;17112;48.636;10.152;2024-02-16T14:25:00;19.50;51.30
30304;DHT22;17112;48.636;10.152;2024-02-16T14:27:26;19.40;51.10
30304;DHT22;17112;48.636;10.152;2024-02-16T14:29:52;19.40;51.40
30304;DHT22;17112;48.636;10.152;2024-02-16T14:32:17;19.40;51.50
30304;DHT22;17112;48.636;10.152;2024-02-16T14:34:43;19.30;51.50
30304;DHT22;17112;48.636;10.152;2024-02-16T14:37:10;19.30;51.60
30304;DHT22;17112;48.636;10.152;2024-02-16T14:39:35;19.30;51.70
30304;DHT22;17112;48.636;10.152;2024-02-16T14:42:01;19.20;51.60
30304;DHT22;17112;48.636;10.152;2024-02-16T14:44:27;19.20;51.60
30304;DHT22;17112;48.636;10.152;2024-02-16T14:46:53;19.20;51.60
30304;DHT22;17112;48.636;10.152;2024-02-16T14:49:18;19.10;51.60
30304;DHT22;17112;48.636;10.152;2024-02-16T14:51:52;19.10;51.60
30304;DHT22;17112;48.636;10.152;2024-02-16T14:54:18;19.00;51.60
30304;DHT22;17112;48.636;10.152;2024-02-16T14:56:44;19.00;52.50
30304;DHT22;17112;48.636;10.152;2024-02-16T14:59:10;18.90;52.00
30304;DHT22;17112;48.636;10.152;2024-02-16T15:01:38;18.90;52.10
30304;DHT22;17112;48.636;10.152;2024-02-16T15:04:04;18.90;52.10
30304;DHT22;17112;48.636;10.152;2024-02-16T15:06:30;18.90;52.20
30304;DHT22;17112;48.636;10.152;2024-02-16T15:08:59;18.80;52.10
30304;DHT22;17112;48.636;10.152;2024-02-16T15:11:25;18.80;52.20
30304;DHT22;17112;48.636;10.152;2024-02-16T15:13:51;18.70;52.30
30304;DHT22;17112;48.636;10.152;2024-02-16T15:16:16;18.70;52.40
30304;DHT22;17112;48.636;10.152;2024-02-16T15:18:42;18.70;52.50
30304;DHT22;17112;48.636;10.152;2024-02-16T15:21:08;18.60;52.60
30304;DHT22;17112;48.636;10.152;2024-02-16T15:23:33;18.60;52.60